Time;durP1;ratioP1;P1;durP2;ratioP2;P2;SDS_P1;SDS_P2;PMS_P1;PMS_P2;Temp;Humidity;BMP_temperature;BMP_pressure;BME280_temperature;BME280_humidity;BME280_pressure;Samples;Min_cycle;Max_cycle;Signal;HPM_P1;HPM_P2
2023/08/23 00:02:24;;;;;;;;;;;;;;;-140.72;100.00;52640.44;6274478;22;20355;-70
2023/08/23 00:04:49;;;;;;;;;;;;;;;-140.72;100.00;52634.38;6273411;22;19911;-69
2023/08/23 00:07:15;;;;;;;;;;;;;;;-140.72;100.00;52626.25;6274691;22;19965;-69
2023/08/23 00:09:40;;;;;;;;;;;;;;;-140.72;100.00;52622.19;6274898;22;20355;-70
2023/08/23 00:12:05;;;;;;;;;;;;;;;-140.72;100.00;52648.56;6274569;22;20324;-70
2023/08/23 00:14:30;;;;;;;;;;;;;;;-140.72;100.00;52670.88;6274779;22;19915;-70
2023/08/23 00:16:56;;;;;;;;;;;;;;;-140.72;100.00;52632.34;6274845;22;20336;-70
2023/08/23 00:19:21;;;;;;;;;;;;;;;-140.72;100.00;52622.19;6274624;22;19957;-70
2023/08/23 00:21:46;;;;;;;;;;;;;;;-140.72;100.00;52614.06;6272659;22;19915;-70
2023/08/23 00:24:11;;;;;;;;;;;;;;;-140.72;100.00;52660.75;6274343;22;19918;-70
2023/08/23 00:26:37;;;;;;;;;;;;;;;-140.72;100.00;52652.63;6272488;22;19986;-70
2023/08/23 00:29:02;;;;;;;;;;;;;;;-140.72;100.00;52654.66;6296634;22;19961;-70
2023/08/23 00:31:27;;;;;;;;;;;;;;;-140.72;100.00;52626.25;6193593;22;1818479;-70
2023/08/23 00:33:52;;;;;;;;;;;;;;;-140.72;100.00;52644.50;6275208;22;19919;-70
2023/08/23 00:36:18;;;;;;;;;;;;;;;-140.72;100.00;52654.66;6275500;22;19926;-70
2023/08/23 00:38:43;;;;;;;;;;;;;;;-140.72;100.00;52605.94;6275953;22;19912;-70
2023/08/23 00:41:09;;;;;;;;;;;;;;;-140.72;100.00;52638.41;6275669;22;19934;-70
2023/08/23 00:43:34;;;;;;;;;;;;;;;-140.72;100.00;52648.56;6277982;22;19915;-70
2023/08/23 00:45:59;;;;;;;;;;;;;;;-140.72;100.00;52610.00;6277387;22;19938;-70
2023/08/23 00:48:24;;;;;;;;;;;;;;;-140.72;100.00;52638.41;6276424;22;19965;-70
2023/08/23 00:50:50;;;;;;;;;;;;;;;-140.72;100.00;52618.13;6275869;22;19923;-70
2023/08/23 00:53:15;;;;;;;;;;;;;;;-140.72;100.00;52642.47;6277117;22;19911;-70
2023/08/23 00:55:40;;;;;;;;;;;;;;;-140.72;100.00;52638.41;6277911;22;19915;-71
2023/08/23 00:58:06;;;;;;;;;;;;;;;-140.72;100.00;52656.69;6277229;22;19922;-71
2023/08/23 01:00:32;;;;;;;;;;;;;;;-140.72;100.00;52640.44;6276477;22;19965;-71
2023/08/23 01:02:57;;;;;;;;;;;;;;;-140.72;100.00;52658.72;6273483;22;19960;-71
2023/08/23 01:05:28;;;;;;;;;;;;;;;-140.72;100.00;52626.25;6275221;22;19918;-70
2023/08/23 01:08:02;;;;;;;;;;;;;;;-140.72;100.00;52622.19;6274825;22;19911;-71
2023/08/23 01:10:48;;;;;;;;;;;;;;;-140.72;100.00;52650.59;6274985;22;19911;-70
2023/08/23 01:13:27;;;;;;;;;;;;;;;-140.72;100.00;52624.22;6275718;22;19923;-71
2023/08/23 01:15:54;;;;;;;;;;;;;;;-140.72;100.00;52618.13;6275997;22;20674;-71
2023/08/23 01:18:20;;;;;;;;;;;;;;;-140.72;100.00;52666.84;6276893;22;20224;-71
2023/08/23 01:20:48;;;;;;;;;;;;;;;-140.72;100.00;52674.94;6277446;22;19911;-71
2023/08/23 01:23:14;;;;;;;;;;;;;;;-140.72;100.00;52630.31;6277128;22;20335;-70
2023/08/23 01:25:42;;;;;;;;;;;;;;;-140.72;100.00;52642.47;6301644;22;19911;-70
2023/08/23 01:28:13;;;;;;;;;;;;;;;-140.72;100.00;52672.91;6276331;22;19911;-70
2023/08/23 01:30:39;;;;;;;;;;;;;;;-140.72;100.00;52658.72;6276865;22;19990;-70
2023/08/23 01:33:05;;;;;;;;;;;;;;;-140.72;100.00;52632.34;6277032;22;19915;-70
2023/08/23 01:35:50;;;;;;;;;;;;;;;-140.72;100.00;52636.38;6277372;22;19923;-70
2023/08/23 01:38:16;;;;;;;;;;;;;;;-140.72;100.00;52634.38;6274710;22;19911;-70
2023/08/23 01:40:41;;;;;;;;;;;;;;;-140.72;100.00;52687.13;6277155;22;19945;-70
2023/08/23 01:43:07;;;;;;;;;;;;;;;-140.72;100.00;52612.03;6277133;22;19911;-70
2023/08/23 01:45:32;;;;;;;;;;;;;;;-140.72;100.00;52630.31;6277144;22;20247;-70
2023/08/23 01:47:57;;;;;;;;;;;;;;;-140.72;100.00;52634.38;6301865;22;19912;-70
2023/08/23 01:50:22;;;;;;;;;;;;;;;-140.72;100.00;52644.50;6275484;22;19911;-70
2023/08/23 01:52:48;;;;;;;;;;;;;;;-140.72;100.00;52679.00;6277461;22;19972;-71
2023/08/23 01:55:14;;;;;;;;;;;;;;;-140.72;100.00;52674.94;6275598;22;19912;-70
2023/08/23 01:57:41;;;;;;;;;;;;;;;-140.72;100.00;52705.38;6277087;22;19965;-70
2023/08/23 02:00:07;;;;;;;;;;;;;;;-140.72;100.00;52650.59;6278181;22;19969;-70
2023/08/23 02:02:32;;;;;;;;;;;;;;;-140.72;100.00;52652.63;6277553;22;19915;-71
2023/08/23 02:04:57;;;;;;;;;;;;;;;-140.72;100.00;52656.69;6277183;22;20383;-71
2023/08/23 02:07:28;;;;;;;;;;;;;;;-140.72;100.00;52652.63;6277118;22;19918;-71
2023/08/23 02:09:54;;;;;;;;;;;;;;;-140.72;100.00;52642.47;6277354;22;20261;-71
2023/08/23 02:12:19;;;;;;;;;;;;;;;-140.72;100.00;52648.56;6276631;22;19912;-71
2023/08/23 02:14:44;;;;;;;;;;;;;;;-140.72;100.00;52685.09;6277184;22;19995;-71
2023/08/23 02:17:17;;;;;;;;;;;;;;;-140.72;100.00;52674.94;6277212;22;20017;-71
2023/08/23 02:19:43;;;;;;;;;;;;;;;-140.72;100.00;52672.91;6277091;22;19945;-71
2023/08/23 02:22:08;;;;;;;;;;;;;;;-140.72;100.00;52679.00;6276636;22;19911;-70
2023/08/23 02:24:33;;;;;;;;;;;;;;;-140.72;100.00;52672.91;6276960;22;19912;-70
2023/08/23 02:26:58;;;;;;;;;;;;;;;-140.72;100.00;52652.63;6276776;22;19911;-70
2023/08/23 02:29:23;;;;;;;;;;;;;;;-140.72;100.00;52630.31;6300946;22;19933;-71
2023/08/23 02:31:49;;;;;;;;;;;;;;;-140.72;100.00;52656.69;6277182;22;19923;-70
2023/08/23 02:34:33;;;;;;;;;;;;;;;-140.72;100.00;52646.53;6275519;22;19957;-70
2023/08/23 02:36:59;;;;;;;;;;;;;;;-140.72;100.00;52658.72;6276381;22;19934;-71
2023/08/23 02:39:25;;;;;;;;;;;;;;;-140.72;100.00;52687.13;6276926;22;19918;-70
2023/08/23 02:41:50;;;;;;;;;;;;;;;-140.72;100.00;52705.38;6276720;22;19918;-70
2023/08/23 02:44:15;;;;;;;;;;;;;;;-140.72;100.00;52610.00;6277931;22;20252;-70
2023/08/23 02:46:40;;;;;;;;;;;;;;;-140.72;100.00;52662.78;6276702;22;19911;-70
2023/08/23 02:49:06;;;;;;;;;;;;;;;-140.72;100.00;52656.69;6300759;22;19919;-70
2023/08/23 02:51:31;;;;;;;;;;;;;;;-140.72;100.00;52656.69;6299552;22;20290;-70
2023/08/23 02:53:56;;;;;;;;;;;;;;;-140.72;100.00;52648.56;6276345;22;19922;-70
2023/08/23 02:56:21;;;;;;;;;;;;;;;-140.72;100.00;52654.66;6300422;22;19912;-70
2023/08/23 02:58:46;;;;;;;;;;;;;;;-140.72;100.00;52658.72;6276392;22;19990;-70
2023/08/23 03:01:12;;;;;;;;;;;;;;;-140.72;100.00;52662.78;6300367;22;19919;-70
2023/08/23 03:03:37;;;;;;;;;;;;;;;-140.72;100.00;52699.31;6276482;22;19911;-70
2023/08/23 03:06:02;;;;;;;;;;;;;;;-140.72;100.00;52650.59;6277026;22;19918;-70
2023/08/23 03:08:28;;;;;;;;;;;;;;;-140.72;100.00;52662.78;6276132;22;19911;-70
2023/08/23 03:11:03;;;;;;;;;;;;;;;-140.72;100.00;52660.75;6276351;22;19911;-70
2023/08/23 03:13:28;;;;;;;;;;;;;;;-140.72;100.00;52628.28;6276833;22;19998;-71
2023/08/23 03:15:54;;;;;;;;;;;;;;;-140.72;100.00;52632.34;6276201;22;19961;-70
2023/08/23 03:18:19;;;;;;;;;;;;;;;-140.72;100.00;52693.22;6276112;22;19911;-70
2023/08/23 03:20:44;;;;;;;;;;;;;;;-140.72;100.00;52650.59;6277114;22;19911;-70
2023/08/23 03:23:10;;;;;;;;;;;;;;;-140.72;100.00;52644.50;6276468;22;19946;-70
2023/08/23 03:25:35;;;;;;;;;;;;;;;-140.72;100.00;52628.28;6276814;22;19965;-70
2023/08/23 03:28:01;;;;;;;;;;;;;;;-140.72;100.00;52648.56;6276567;22;19915;-71
2023/08/23 03:30:26;;;;;;;;;;;;;;;-140.72;100.00;52683.06;6276076;22;19923;-71
2023/08/23 03:32:51;;;;;;;;;;;;;;;-140.72;100.00;52668.84;6276683;22;19957;-71
2023/08/23 03:35:17;;;;;;;;;;;;;;;-140.72;100.00;52674.94;6276402;22;20000;-71
2023/08/23 03:37:42;;;;;;;;;;;;;;;-140.72;100.00;52662.78;6276406;22;19989;-69
2023/08/23 03:40:07;;;;;;;;;;;;;;;-140.72;100.00;52654.66;6275678;22;19911;-70
2023/08/23 03:42:32;;;;;;;;;;;;;;;-140.72;100.00;52683.06;6276121;22;19918;-70
2023/08/23 03:44:58;;;;;;;;;;;;;;;-140.72;100.00;52654.66;6276515;22;19954;-69
2023/08/23 03:47:23;;;;;;;;;;;;;;;-140.72;100.00;52662.78;6276343;22;20328;-70
2023/08/23 03:49:48;;;;;;;;;;;;;;;-140.72;100.00;52674.94;6274663;22;20240;-70
2023/08/23 03:52:14;;;;;;;;;;;;;;;-140.72;100.00;52652.63;6274994;22;20284;-71
2023/08/23 03:54:39;;;;;;;;;;;;;;;-140.72;100.00;52693.22;6276591;22;19911;-71
2023/08/23 03:57:04;;;;;;;;;;;;;;;-140.72;100.00;52676.97;6276032;22;19915;-70
2023/08/23 03:59:30;;;;;;;;;;;;;;;-140.72;100.00;52670.88;6276571;22;19986;-70
2023/08/23 04:01:55;;;;;;;;;;;;;;;-140.72;100.00;52664.81;6276031;22;20346;-70
2023/08/23 04:04:20;;;;;;;;;;;;;;;-140.72;100.00;52672.91;6276391;22;20248;-70
2023/08/23 04:06:45;;;;;;;;;;;;;;;-140.72;100.00;52685.09;6276869;22;20295;-70
2023/08/23 04:09:11;;;;;;;;;;;;;;;-140.72;100.00;52660.75;6277894;22;19982;-70
2023/08/23 04:11:36;;;;;;;;;;;;;;;-140.72;100.00;52670.88;6276365;22;19915;-70
2023/08/23 04:14:01;;;;;;;;;;;;;;;-140.72;100.00;52664.81;6276559;22;19961;-71
2023/08/23 04:16:26;;;;;;;;;;;;;;;-140.72;100.00;52654.66;6277811;22;19950;-69
2023/08/23 04:18:53;;;;;;;;;;;;;;;-140.72;100.00;52644.50;6277912;22;20351;-70
2023/08/23 04:21:18;;;;;;;;;;;;;;;-140.72;100.00;52668.84;6277877;22;19911;-70
2023/08/23 04:23:43;;;;;;;;;;;;;;;-140.72;100.00;52668.84;6276572;22;19919;-70
2023/08/23 04:26:08;;;;;;;;;;;;;;;-140.72;100.00;52654.66;6278028;22;19911;-70
2023/08/23 04:28:34;;;;;;;;;;;;;;;-140.72;100.00;52636.38;6278136;22;19912;-70
2023/08/23 04:31:03;;;;;;;;;;;;;;;-140.72;100.00;52622.19;6302273;22;19991;-69
2023/08/23 04:33:28;;;;;;;;;;;;;;;-140.72;100.00;52648.56;6277664;22;20001;-71
2023/08/23 04:35:53;;;;;;;;;;;;;;;-140.72;100.00;52666.84;6301865;22;19911;-70
2023/08/23 04:38:19;;;;;;;;;;;;;;;-140.72;100.00;52630.31;6277740;22;20249;-71
2023/08/23 04:40:44;;;;;;;;;;;;;;;-140.72;100.00;52695.25;6277997;22;20259;-72
2023/08/23 04:43:09;;;;;;;;;;;;;;;-140.72;100.00;52634.38;6278255;22;20282;-72
2023/08/23 04:45:38;;;;;;;;;;;;;;;-140.72;100.00;52656.69;6277746;22;19954;-71
2023/08/23 04:48:04;;;;;;;;;;;;;;;-140.72;100.00;52660.75;6277557;22;20281;-71
2023/08/23 04:50:29;;;;;;;;;;;;;;;-140.72;100.00;52656.69;6277675;22;19953;-71
2023/08/23 04:52:55;;;;;;;;;;;;;;;-140.72;100.00;52654.66;6277485;22;19961;-71
2023/08/23 04:55:20;;;;;;;;;;;;;;;-140.72;100.00;52658.72;6277707;22;20013;-71
2023/08/23 04:57:45;;;;;;;;;;;;;;;-140.72;100.00;52644.50;6277713;22;19911;-71
2023/08/23 05:00:11;;;;;;;;;;;;;;;-140.72;100.00;52685.09;6276485;22;19965;-72
2023/08/23 05:02:36;;;;;;;;;;;;;;;-140.72;100.00;52691.19;6277540;22;20013;-73
2023/08/23 05:05:03;;;;;;;;;;;;;;;-140.72;100.00;52660.75;6279807;22;19918;-73
2023/08/23 05:07:28;;;;;;;;;;;;;;;-140.72;100.00;52672.91;6277292;22;20299;-72
2023/08/23 05:09:54;;;;;;;;;;;;;;;-140.72;100.00;52687.13;6278207;22;19915;-73
2023/08/23 05:12:19;;;;;;;;;;;;;;;-140.72;100.00;52687.13;6276171;22;19911;-73
2023/08/23 05:14:45;;;;;;;;;;;;;;;-140.72;100.00;52666.84;6276012;22;19981;-72
2023/08/23 05:17:10;;;;;;;;;;;;;;;-140.72;100.00;52668.84;6278020;22;19911;-72
2023/08/23 05:19:35;;;;;;;;;;;;;;;-140.72;100.00;52689.16;6276979;22;20338;-72
2023/08/23 05:22:00;;;;;;;;;;;;;;;-140.72;100.00;52644.50;6275804;22;19969;-72
2023/08/23 05:24:25;;;;;;;;;;;;;;;-140.72;100.00;52660.75;6275771;22;19990;-73
2023/08/23 05:26:51;;;;;;;;;;;;;;;-140.72;100.00;52668.84;6277595;22;20236;-71
2023/08/23 05:29:16;;;;;;;;;;;;;;;-140.72;100.00;52676.97;6275897;22;20235;-71
2023/08/23 05:31:41;;;;;;;;;;;;;;;-140.72;100.00;52644.50;6277782;22;19922;-71
2023/08/23 05:34:06;;;;;;;;;;;;;;;-140.72;100.00;52666.84;6302041;22;19915;-71
2023/08/23 05:36:32;;;;;;;;;;;;;;;-140.72;100.00;52642.47;6278540;22;19917;-72
2023/08/23 05:39:01;;;;;;;;;;;;;;;-140.72;100.00;52634.38;6276937;22;19938;-74
2023/08/23 05:41:26;;;;;;;;;;;;;;;-140.72;100.00;52660.75;6276162;22;19990;-73
2023/08/23 05:43:51;;;;;;;;;;;;;;;-140.72;100.00;52640.44;6277637;22;20330;-73
2023/08/23 05:46:17;;;;;;;;;;;;;;;-140.72;100.00;52634.38;6277031;22;19911;-74
2023/08/23 05:48:42;;;;;;;;;;;;;;;-140.72;100.00;52628.28;6277276;22;19918;-73
2023/08/23 05:51:07;;;;;;;;;;;;;;;-140.72;100.00;52654.66;6275913;22;19973;-74
2023/08/23 05:53:33;;;;;;;;;;;;;;;-140.72;100.00;52585.66;6275372;22;19919;-74
2023/08/23 05:55:58;;;;;;;;;;;;;;;-140.72;100.00;52674.94;6277830;22;19912;-74
2023/08/23 05:58:25;;;;;;;;;;;;;;;-140.72;100.00;52634.38;6276443;22;20248;-73
2023/08/23 06:00:51;;;;;;;;;;;;;;;-140.72;100.00;52565.38;6301432;22;19911;-74
2023/08/23 06:03:16;;;;;;;;;;;;;;;-140.72;100.00;52601.91;6279047;22;19979;-73
2023/08/23 06:05:42;;;;;;;;;;;;;;;-140.72;100.00;52612.03;6277801;22;19949;-73
2023/08/23 06:08:08;;;;;;;;;;;;;;;-140.72;100.00;52597.84;6276656;22;19911;-74
2023/08/23 06:10:33;;;;;;;;;;;;;;;-140.72;100.00;52640.44;6275663;22;19964;-74
2023/08/23 06:12:58;;;;;;;;;;;;;;;-140.72;100.00;52610.00;6276783;22;19911;-72
2023/08/23 06:15:39;;;;;;;;;;;;;;;-140.72;100.00;52626.25;6275126;22;20000;-71
2023/08/23 06:18:04;;;;;;;;;;;;;;;-140.72;100.00;52624.22;6275431;22;19972;-71
2023/08/23 06:20:30;;;;;;;;;;;;;;;-140.72;100.00;52610.00;6275479;22;19982;-70
2023/08/23 06:23:00;;;;;;;;;;;;;;;-140.72;100.00;52585.66;6274865;22;19969;-70
2023/08/23 06:25:25;;;;;;;;;;;;;;;-140.72;100.00;52597.84;6275314;22;19911;-70
2023/08/23 06:27:51;;;;;;;;;;;;;;;-140.72;100.00;52569.44;6276248;22;19911;-69
2023/08/23 06:30:16;;;;;;;;;;;;;;;-140.72;100.00;52607.97;6276307;22;19915;-70
2023/08/23 06:32:48;;;;;;;;;;;;;;;-140.72;100.00;52601.91;6276626;22;19968;-70
2023/08/23 06:35:13;;;;;;;;;;;;;;;-140.72;100.00;52593.78;6277453;22;19915;-70
2023/08/23 06:37:39;;;;;;;;;;;;;;;-140.72;100.00;52573.50;6277102;22;20377;-70
2023/08/23 06:40:04;;;;;;;;;;;;;;;-140.72;100.00;52569.44;6277251;22;19918;-70
2023/08/23 06:42:29;;;;;;;;;;;;;;;-140.72;100.00;52565.38;6278653;22;20308;-71
2023/08/23 06:44:55;;;;;;;;;;;;;;;-140.72;100.00;52567.41;6275987;22;19915;-71
2023/08/23 06:47:31;;;;;;;;;;;;;;;-140.72;100.00;52559.28;6301142;22;19911;-75
2023/08/23 06:49:56;;;;;;;;;;;;;;;-140.72;100.00;52565.38;6275744;22;19972;-75
2023/08/23 06:52:22;;;;;;;;;;;;;;;-140.72;100.00;52573.50;6276918;22;20035;-75
2023/08/23 06:54:47;;;;;;;;;;;;;;;-140.72;100.00;52553.19;6276110;22;19957;-74
2023/08/23 06:57:13;;;;;;;;;;;;;;;-140.72;100.00;52567.41;6274796;22;19911;-74
2023/08/23 06:59:38;;;;;;;;;;;;;;;-140.72;100.00;52563.34;6275888;22;20328;-74
2023/08/23 07:02:03;;;;;;;;;;;;;;;-140.72;100.00;52577.53;6276903;22;19934;-73
2023/08/23 07:04:29;;;;;;;;;;;;;;;-140.72;100.00;52587.69;6276712;22;19987;-73
2023/08/23 07:06:54;;;;;;;;;;;;;;;-140.72;100.00;52555.22;6276480;22;20345;-72
2023/08/23 07:09:19;;;;;;;;;;;;;;;-140.72;100.00;52555.22;6274419;22;20304;-74
2023/08/23 07:11:58;;;;;;;;;;;;;;;-140.72;100.00;52512.59;6275968;22;20320;-74
2023/08/23 07:14:24;;;;;;;;;;;;;;;-140.72;100.00;52543.03;6273706;22;19911;-74
2023/08/23 07:17:02;;;;;;;;;;;;;;;-140.72;100.00;52545.06;6276005;22;19957;-73
2023/08/23 07:19:27;;;;;;;;;;;;;;;-140.72;100.00;52520.72;6275870;22;20243;-72
2023/08/23 07:21:53;;;;;;;;;;;;;;;-140.72;100.00;52555.22;6275790;22;19911;-74
2023/08/23 07:24:18;;;;;;;;;;;;;;;-140.72;100.00;52541.03;6276076;22;20224;-74
2023/08/23 07:26:43;;;;;;;;;;;;;;;-140.72;100.00;52549.13;6276162;22;19912;-72
2023/08/23 07:29:11;;;;;;;;;;;;;;;-140.72;100.00;52534.94;6275753;22;20319;-70
2023/08/23 07:31:37;;;;;;;;;;;;;;;-140.72;100.00;52539.00;6297477;22;19945;-70
2023/08/23 07:34:02;;;;;;;;;;;;;;;-140.72;100.00;52545.06;6275494;22;20286;-70
2023/08/23 07:36:27;;;;;;;;;;;;;;;-140.72;100.00;52530.88;6274347;22;20335;-70
2023/08/23 07:38:52;;;;;;;;;;;;;;;-140.72;100.00;52534.94;6273917;22;20316;-70
2023/08/23 07:41:17;;;;;;;;;;;;;;;-140.72;100.00;52508.56;6275498;22;19915;-70
2023/08/23 07:43:43;;;;;;;;;;;;;;;-140.72;100.00;52508.56;6277077;22;19918;-70
2023/08/23 07:46:08;;;;;;;;;;;;;;;-140.72;100.00;52494.34;6274677;22;19923;-70
2023/08/23 07:48:33;;;;;;;;;;;;;;;-140.72;100.00;52512.59;6276472;22;19918;-70
2023/08/23 07:51:03;;;;;;;;;;;;;;;-140.72;100.00;52500.44;6276909;22;19911;-70
2023/08/23 07:53:29;;;;;;;;;;;;;;;-140.72;100.00;52518.69;6275746;22;19938;-70
2023/08/23 07:55:55;;;;;;;;;;;;;;;-140.72;100.00;52536.97;6277886;22;19911;-70
2023/08/23 07:58:20;;;;;;;;;;;;;;;-140.72;100.00;52488.25;6275580;22;19927;-70
2023/08/23 08:00:53;;;;;;;;;;;;;;;-140.72;100.00;52530.88;6276888;22;19945;-70
2023/08/23 08:03:18;;;;;;;;;;;;;;;-140.72;100.00;52549.13;6275815;22;19919;-70
2023/08/23 08:05:43;;;;;;;;;;;;;;;-140.72;100.00;52461.88;6276736;22;20682;-68
2023/08/23 08:08:10;;;;;;;;;;;;;;;-140.72;100.00;52504.50;6275094;22;20025;-69
2023/08/23 08:10:37;;;;;;;;;;;;;;;-140.72;100.00;52478.13;6277123;22;20290;-77
2023/08/23 08:13:05;;;;;;;;;;;;;;;-140.72;100.00;52439.56;6275879;22;19990;-76
2023/08/23 08:15:33;;;;;;;;;;;;;;;-140.72;100.00;52465.94;6277634;22;19922;-73
2023/08/23 08:17:59;;;;;;;;;;;;;;;-140.72;100.00;52457.81;6275752;22;19966;-70
2023/08/23 08:20:25;;;;;;;;;;;;;;;-140.72;100.00;52478.13;6273833;22;19972;-70
2023/08/23 08:22:50;;;;;;;;;;;;;;;-140.72;100.00;52472.03;6276115;22;19969;-69
2023/08/23 08:25:17;;;;;;;;;;;;;;;-140.72;100.00;52467.97;6274145;22;19912;-69
2023/08/23 08:27:43;;;;;;;;;;;;;;;-140.72;100.00;52415.22;6275616;22;19911;-70
2023/08/23 08:30:08;;;;;;;;;;;;;;;-140.72;100.00;52492.31;6275601;22;19937;-70
2023/08/23 08:32:33;;;;;;;;;;;;;;;-140.72;100.00;52480.16;6275237;22;20037;-70
2023/08/23 08:35:01;;;;;;;;;;;;;;;-140.72;100.00;52451.72;6275215;22;19965;-70
2023/08/23 08:37:26;;;;;;;;;;;;;;;-140.72;100.00;52467.97;6273631;22;20010;-70
2023/08/23 08:39:51;;;;;;;;;;;;;;;-140.72;100.00;52445.66;6299944;22;19945;-70
2023/08/23 08:42:17;;;;;;;;;;;;;;;-140.72;100.00;52476.09;6274426;22;19919;-71
2023/08/23 08:44:44;;;;;;;;;;;;;;;-140.72;100.00;52401.00;6272206;22;19915;-70
2023/08/23 08:47:09;;;;;;;;;;;;;;;-140.72;100.00;52419.28;6278413;22;19990;-71
2023/08/23 08:49:34;;;;;;;;;;;;;;;-140.72;100.00;52409.13;6277760;22;20332;-70
2023/08/23 08:52:02;;;;;;;;;;;;;;;-140.72;100.00;52372.59;6275999;22;19998;-68
2023/08/23 08:54:29;;;;;;;;;;;;;;;-140.72;100.00;52405.06;6277103;22;19957;-68
2023/08/23 08:56:55;;;;;;;;;;;;;;;-140.72;100.00;52362.44;6277778;22;19977;-70
2023/08/23 08:59:20;;;;;;;;;;;;;;;-140.72;100.00;52376.66;6277144;22;19994;-71
2023/08/23 09:01:46;;;;;;;;;;;;;;;-140.72;100.00;52342.16;6277941;22;19918;-69
2023/08/23 09:04:12;;;;;;;;;;;;;;;-140.72;100.00;52350.28;6277982;22;19915;-68
2023/08/23 09:06:49;;;;;;;;;;;;;;;-140.72;100.00;52330.00;6277733;22;19911;-69
2023/08/23 09:09:15;;;;;;;;;;;;;;;-140.72;100.00;52273.19;6276054;22;19911;-70
2023/08/23 09:11:40;;;;;;;;;;;;;;;-140.72;100.00;52285.34;6277629;22;19981;-70
2023/08/23 09:14:17;;;;;;;;;;;;;;;-140.72;95.65;52271.16;6278814;22;19946;-69
2023/08/23 09:16:43;;;;;;;;;;;;;;;-140.72;86.65;52261.00;6279625;22;19998;-69
2023/08/23 09:19:10;;;;;;;;;;;;;;;-140.72;60.95;52226.50;6277663;22;19911;-69
2023/08/23 09:21:35;;;;;;;;;;;;;;;-140.72;26.70;52248.81;6276977;22;19994;-69
2023/08/23 09:24:00;;;;;;;;;;;;;;;-140.72;0.00;52200.13;6277175;22;20004;-70
2023/08/23 09:26:26;;;;;;;;;;;;;;;-140.72;0.00;52204.19;6275831;22;19922;-70
2023/08/23 09:28:51;;;;;;;;;;;;;;;-140.72;0.00;52177.81;6277083;22;19919;-69
2023/08/23 09:31:16;;;;;;;;;;;;;;;-140.72;0.00;52171.72;6277119;22;19915;-69
2023/08/23 09:33:46;;;;;;;;;;;;;;;-140.72;0.00;52161.56;6275648;22;19953;-70
2023/08/23 09:36:22;;;;;;;;;;;;;;;-140.72;0.00;52165.63;6276886;22;19957;-70
2023/08/23 09:38:47;;;;;;;;;;;;;;;-140.72;0.00;52196.06;6276939;22;20316;-70
2023/08/23 09:41:14;;;;;;;;;;;;;;;-140.72;0.00;52116.94;6275552;22;19917;-70
2023/08/23 09:43:39;;;;;;;;;;;;;;;-140.72;0.00;52129.13;6277404;22;19932;-71
2023/08/23 09:46:05;;;;;;;;;;;;;;;-140.72;0.00;52118.97;6275126;22;19961;-70
2023/08/23 09:48:33;;;;;;;;;;;;;;;-140.72;0.00;52131.16;6275729;22;20328;-70
2023/08/23 09:51:00;;;;;;;;;;;;;;;-140.72;0.00;52121.00;6274620;22;19922;-70
2023/08/23 09:53:28;;;;;;;;;;;;;;;-140.72;0.00;52141.28;6277211;22;19918;-70
2023/08/23 09:55:54;;;;;;;;;;;;;;;-140.72;0.00;52070.28;6276910;22;19943;-68
2023/08/23 09:58:20;;;;;;;;;;;;;;;-140.72;0.00;52114.91;6277763;22;19911;-69
2023/08/23 10:00:51;;;;;;;;;;;;;;;-140.72;0.00;52118.97;6276931;22;19997;-69
2023/08/23 10:03:17;;;;;;;;;;;;;;;-140.72;0.00;52102.75;6275618;22;20339;-70
2023/08/23 10:05:43;;;;;;;;;;;;;;;-140.72;0.00;52076.34;6276064;22;19911;-70
2023/08/23 10:08:09;;;;;;;;;;;;;;;-140.72;0.00;52043.91;6277152;22;19958;-70
2023/08/23 10:10:34;;;;;;;;;;;;;;;-140.72;0.00;52025.63;6277107;22;19918;-68
2023/08/23 10:13:04;;;;;;;;;;;;;;;-140.72;0.00;51995.19;6277153;22;19918;-69
2023/08/23 10:15:31;;;;;;;;;;;;;;;-140.72;0.00;51993.19;6275580;22;19912;-68
2023/08/23 10:17:58;;;;;;;;;;;;;;;-140.72;0.00;52023.59;6275264;22;19954;-69
2023/08/23 10:20:23;;;;;;;;;;;;;;;-140.72;0.00;51964.78;6276765;22;19956;-70
2023/08/23 10:22:52;;;;;;;;;;;;;;;-140.72;0.00;51968.81;6276762;22;19990;-68
2023/08/23 10:25:17;;;;;;;;;;;;;;;-140.72;0.00;51936.38;6276830;22;19993;-71
2023/08/23 10:27:46;;;;;;;;;;;;;;;-140.72;0.00;51981.00;6276801;22;19911;-68
2023/08/23 10:30:15;;;;;;;;;;;;;;;-140.72;0.00;51970.84;6277159;22;19911;-69
2023/08/23 10:32:43;;;;;;;;;;;;;;;-140.72;0.00;51928.25;6276588;22;19916;-71
2023/08/23 10:35:31;;;;;;;;;;;;;;;-140.72;0.00;51972.88;6277164;22;19972;-69
2023/08/23 10:37:57;;;;;;;;;;;;;;;-140.72;0.00;51932.31;6275683;22;19915;-69
2023/08/23 10:40:28;;;;;;;;;;;;;;;-140.72;0.00;51997.22;6301951;22;20017;-69
2023/08/23 10:42:53;;;;;;;;;;;;;;;-140.72;0.00;51916.06;6275712;22;19911;-72
2023/08/23 10:45:19;;;;;;;;;;;;;;;-140.72;0.00;51832.91;6276662;22;19918;-70
2023/08/23 10:47:44;;;;;;;;;;;;;;;-140.72;0.00;51838.97;6274811;22;19918;-69
2023/08/23 10:50:10;;;;;;;;;;;;;;;-140.72;0.00;51794.34;6276447;22;19962;-70
2023/08/23 10:52:35;;;;;;;;;;;;;;;-140.72;0.00;51989.13;6301059;22;19918;-70
2023/08/23 10:55:02;;;;;;;;;;;;;;;-140.72;0.00;52074.34;6275297;22;20324;-70
2023/08/23 10:57:27;;;;;;;;;;;;;;;-140.72;0.00;52135.19;6275870;22;19919;-74
2023/08/23 10:59:52;;;;;;;;;;;;;;;-140.72;0.00;52196.06;6275490;22;20339;-71
2023/08/23 11:02:17;;;;;;;;;;;;;;;-140.72;0.00;52169.69;6276295;22;19917;-70
2023/08/23 11:04:43;;;;;;;;;;;;;;;-140.72;0.00;52027.66;6276437;22;19930;-70
2023/08/23 11:07:08;;;;;;;;;;;;;;;-140.72;0.00;52086.50;6275972;22;19994;-70
2023/08/23 11:09:34;;;;;;;;;;;;;;;-140.72;0.00;52100.72;6275536;22;19919;-70
2023/08/23 11:12:00;;;;;;;;;;;;;;;-140.72;0.00;52155.50;6276203;22;19912;-71
2023/08/23 11:14:40;;;;;;;;;;;;;;;-140.72;0.00;52163.59;6275098;22;19993;-71
2023/08/23 11:17:07;;;;;;;;;;;;;;;-140.72;0.00;52090.56;6276577;22;19946;-70
2023/08/23 11:19:33;;;;;;;;;;;;;;;-140.72;0.00;52043.91;6276529;22;19961;-70
2023/08/23 11:21:59;;;;;;;;;;;;;;;-140.72;0.00;51948.53;6274161;22;19912;-70
2023/08/23 11:24:25;;;;;;;;;;;;;;;-140.72;0.00;51938.41;6274627;22;19990;-70
2023/08/23 11:26:50;;;;;;;;;;;;;;;-140.72;0.00;51855.22;6273851;22;19946;-71
2023/08/23 11:29:15;;;;;;;;;;;;;;;-140.72;0.00;52019.56;6273070;22;19915;-71
2023/08/23 11:31:40;;;;;;;;;;;;;;;-140.72;0.00;52003.31;6274269;22;19919;-70
2023/08/23 11:34:06;;;;;;;;;;;;;;;-140.72;0.00;51956.66;6273615;22;19922;-70
2023/08/23 11:36:38;;;;;;;;;;;;;;;-140.72;0.00;52090.56;6274246;22;20259;-70
2023/08/23 11:39:04;;;;;;;;;;;;;;;-140.72;0.00;52066.22;6276233;22;19977;-70
2023/08/23 11:41:43;;;;;;;;;;;;;;;-140.72;0.00;52045.94;6275817;22;20212;-71
2023/08/23 11:44:08;;;;;;;;;;;;;;;-140.72;0.00;52179.84;6276711;22;19916;-71
2023/08/23 11:46:38;;;;;;;;;;;;;;;-140.72;0.00;52094.63;6275981;22;19957;-71
2023/08/23 11:49:15;;;;;;;;;;;;;;;-140.72;0.00;52019.56;6277063;22;20291;-71
2023/08/23 11:51:44;;;;;;;;;;;;;;;-140.72;0.00;52021.56;6276966;22;19965;-71
2023/08/23 11:54:09;;;;;;;;;;;;;;;-140.72;0.00;51869.41;6277180;22;19978;-71
2023/08/23 11:56:38;;;;;;;;;;;;;;;-140.72;0.00;51800.44;6276181;22;19911;-70
2023/08/23 11:59:03;;;;;;;;;;;;;;;-140.72;0.00;51737.53;6276528;22;19919;-70
2023/08/23 12:01:34;;;;;;;;;;;;;;;-140.72;0.00;51674.66;6299918;22;19911;-70
2023/08/23 12:03:59;;;;;;;;;;;;;;;-140.72;0.00;51625.97;6300631;22;19919;-71
2023/08/23 12:06:31;;;;;;;;;;;;;;;-140.72;0.00;51707.09;6276759;22;20271;-71
2023/08/23 12:09:00;;;;;;;;;;;;;;;-140.72;0.00;51701.03;6276709;22;19916;-68
2023/08/23 12:11:25;;;;;;;;;;;;;;;-140.72;0.00;51652.34;6276721;22;19938;-71
2023/08/23 12:13:51;;;;;;;;;;;;;;;-140.72;0.00;51950.56;6275120;22;19911;-69
2023/08/23 12:16:41;;;;;;;;;;;;;;;-140.72;0.00;51859.28;6276619;22;19981;-71
2023/08/23 12:19:06;;;;;;;;;;;;;;;-140.72;0.00;51810.56;6276534;22;19911;-71
2023/08/23 12:21:31;;;;;;;;;;;;;;;-140.72;0.00;51709.13;6276150;22;19965;-69